createdAt,value
2018-05-15T01:51:41.380Z,13.74
2018-05-15T01:54:08.844Z,13.71
2018-05-15T01:56:36.313Z,13.71
2018-05-15T01:59:03.814Z,13.69
2018-05-15T02:01:31.262Z,13.72
2018-05-15T02:03:58.748Z,13.70
2018-05-15T02:06:26.213Z,13.71
2018-05-15T02:15:17.136Z,13.68
2018-05-15T02:17:44.626Z,13.66
2018-05-15T02:20:12.122Z,13.64
2018-05-15T02:22:39.627Z,13.63
2018-05-15T02:25:07.107Z,13.66
2018-05-15T02:30:08.779Z,13.59
2018-05-15T02:32:36.236Z,13.53
2018-05-15T02:35:03.719Z,13.50
2018-05-15T02:37:31.198Z,13.47
2018-05-15T02:39:58.649Z,13.48
2018-05-15T02:42:26.124Z,13.49
2018-05-15T02:44:53.597Z,13.57
2018-05-15T02:47:21.090Z,13.52
2018-05-15T02:49:48.586Z,13.49
2018-05-15T02:52:16.090Z,13.48
2018-05-15T02:54:43.571Z,13.45
2018-05-15T02:57:11.070Z,13.44
2018-05-15T03:13:53.401Z,13.56
2018-05-15T03:16:20.881Z,13.61
2018-05-15T03:18:48.356Z,13.55
2018-05-15T03:21:15.834Z,13.51
2018-05-15T03:23:43.300Z,13.51
2018-05-15T03:26:10.796Z,13.56
2018-05-15T03:28:38.275Z,13.67
2018-05-15T03:31:05.741Z,13.62
2018-05-15T03:33:33.224Z,13.61
2018-05-15T03:36:00.707Z,13.69
2018-05-15T03:38:28.168Z,13.65
2018-05-15T03:40:55.628Z,13.66
2018-05-15T03:43:23.127Z,13.62
2018-05-15T03:54:01.278Z,13.60
2018-05-15T03:56:28.733Z,13.55
2018-05-15T03:58:56.195Z,13.55
2018-05-15T04:01:35.538Z,13.57
2018-05-15T04:04:14.814Z,13.56
2018-05-15T04:06:54.066Z,13.57
2018-05-15T04:09:21.524Z,13.51
2018-05-15T04:11:49.017Z,13.47
2018-05-15T04:14:16.490Z,13.52
2018-05-15T04:16:43.975Z,13.56
2018-05-15T04:19:11.493Z,13.55
2018-05-15T04:21:39.055Z,13.46
2018-05-15T04:24:06.644Z,13.54
2018-05-15T04:26:34.139Z,13.52
2018-05-15T04:29:01.615Z,13.52
2018-05-15T04:31:29.097Z,13.54
2018-05-15T04:33:56.574Z,13.64
2018-05-15T04:36:24.060Z,13.60
2018-05-15T04:38:51.556Z,13.57
2018-05-15T04:41:19.030Z,13.55
2018-05-15T04:43:46.617Z,13.56
2018-05-15T04:46:14.007Z,13.62
2018-05-15T04:48:41.455Z,13.63
2018-05-15T04:51:08.966Z,13.64
2018-05-15T04:53:36.490Z,13.59
2018-05-15T04:56:03.996Z,13.64
2018-05-15T04:58:31.494Z,13.70
2018-05-15T05:00:58.993Z,13.65
2018-05-15T05:03:26.498Z,13.71
2018-05-15T05:05:53.974Z,13.70
2018-05-15T05:08:21.429Z,13.74
2018-05-15T05:10:48.928Z,13.80
2018-05-15T05:13:16.426Z,13.80
2018-05-15T05:15:43.915Z,13.73
2018-05-15T05:18:11.396Z,13.68
2018-05-15T05:20:38.902Z,13.77
2018-05-15T05:23:06.380Z,13.72
2018-05-15T05:25:33.846Z,13.71
2018-05-15T05:28:01.350Z,13.69
2018-05-15T05:30:29.111Z,13.75
2018-05-15T05:32:56.579Z,13.74
2018-05-15T05:35:24.075Z,13.77
2018-05-15T05:37:51.530Z,13.76
2018-05-15T05:40:19.007Z,13.78
2018-05-15T05:42:46.512Z,13.81
2018-05-15T05:45:13.966Z,13.83
2018-05-15T05:47:46.998Z,13.84
2018-05-15T05:50:14.454Z,13.86
2018-05-15T05:52:41.915Z,13.87
2018-05-15T05:55:09.405Z,13.90
2018-05-15T05:57:36.905Z,13.94
2018-05-15T06:00:04.430Z,13.98
2018-05-15T06:02:31.912Z,14.00
2018-05-15T06:04:59.394Z,14.01
2018-05-15T06:07:27.001Z,14.05
2018-05-15T06:09:54.399Z,14.08
2018-05-15T06:12:21.894Z,14.15
2018-05-15T06:14:49.396Z,14.14
2018-05-15T06:17:16.875Z,14.19
2018-05-15T06:19:44.343Z,14.21
2018-05-15T06:22:11.858Z,14.12
2018-05-15T06:24:39.358Z,14.10
2018-05-15T06:27:06.860Z,14.08
2018-05-15T06:29:34.340Z,14.04
2018-05-15T06:32:01.827Z,14.13
2018-05-15T06:34:29.315Z,14.17
2018-05-15T06:36:56.790Z,14.19
2018-05-15T06:39:24.279Z,14.21
2018-05-15T06:41:51.807Z,14.19
2018-05-15T06:44:19.295Z,14.20
2018-05-15T06:46:46.795Z,14.28
2018-05-15T06:49:14.280Z,14.27
2018-05-15T06:51:41.765Z,14.30
2018-05-15T06:54:09.264Z,14.25
2018-05-15T06:56:36.824Z,14.28
2018-05-15T06:59:04.293Z,14.25
2018-05-15T07:01:31.777Z,14.26
2018-05-15T07:03:59.808Z,14.25
2018-05-15T07:06:27.269Z,14.26
2018-05-15T07:08:54.796Z,14.30
2018-05-15T07:11:22.321Z,14.31
2018-05-15T07:13:49.828Z,14.47
2018-05-15T07:16:17.327Z,14.40
2018-05-15T07:18:44.852Z,14.42
2018-05-15T07:21:12.323Z,14.55
2018-05-15T07:23:39.778Z,14.57
2018-05-15T07:26:07.621Z,14.64
2018-05-15T07:28:35.108Z,14.67
2018-05-15T07:31:02.564Z,14.59
2018-05-15T07:33:30.018Z,14.59
2018-05-15T07:35:57.489Z,14.44
2018-05-15T07:38:24.957Z,14.33
2018-05-15T07:40:52.415Z,14.40
2018-05-15T07:43:19.902Z,14.37
2018-05-15T07:45:47.365Z,14.41
2018-05-15T07:48:14.931Z,14.39
2018-05-15T07:50:42.350Z,14.46
2018-05-15T07:53:09.831Z,14.49
2018-05-15T07:55:37.294Z,14.50
2018-05-15T07:58:04.775Z,14.58
2018-05-15T08:00:32.243Z,14.60
2018-05-15T08:02:59.711Z,14.75
2018-05-15T08:05:27.226Z,14.75
2018-05-15T08:07:54.694Z,14.92
2018-05-15T08:10:22.157Z,15.02
2018-05-15T08:12:49.636Z,15.10
2018-05-15T08:15:17.097Z,15.07
2018-05-15T08:17:44.607Z,15.02
2018-05-15T08:20:12.815Z,14.85
2018-05-15T08:22:40.287Z,14.81
2018-05-15T08:25:07.770Z,14.90
2018-05-15T08:27:35.219Z,15.01
2018-05-15T08:30:02.725Z,14.98
2018-05-15T08:32:30.227Z,15.03
2018-05-15T08:34:57.730Z,15.16
2018-05-15T08:37:25.321Z,15.24
2018-05-15T08:39:52.730Z,15.10
2018-05-15T08:42:20.233Z,15.13
2018-05-15T08:44:47.719Z,15.13
2018-05-15T08:47:15.202Z,15.17
2018-05-15T08:49:42.655Z,14.98
2018-05-15T08:52:10.508Z,15.13
2018-05-15T08:54:37.970Z,14.91
2018-05-15T08:57:05.472Z,14.88
2018-05-15T08:59:32.946Z,14.92
2018-05-15T09:02:00.421Z,14.95
2018-05-15T09:04:27.888Z,15.08
2018-05-15T09:06:55.357Z,15.02
2018-05-15T09:09:22.897Z,14.96
2018-05-15T09:11:50.403Z,14.96
2018-05-15T09:14:17.867Z,15.01
2018-05-15T09:16:45.345Z,14.95
2018-05-15T09:19:12.919Z,15.02
2018-05-15T09:21:40.399Z,15.08
2018-05-15T09:24:07.875Z,15.05
2018-05-15T09:26:35.345Z,15.19
2018-05-15T09:29:02.817Z,15.18
2018-05-15T09:31:30.333Z,15.10
2018-05-15T09:33:57.819Z,14.89
2018-05-15T09:36:25.313Z,14.85
2018-05-15T09:38:52.787Z,14.80
2018-05-15T09:41:20.280Z,14.69
2018-05-15T09:43:56.021Z,14.69
2018-05-15T09:46:23.501Z,14.56
2018-05-15T09:48:50.989Z,14.54
2018-05-15T09:51:18.478Z,14.66
2018-05-15T09:53:45.961Z,14.66
2018-05-15T09:56:13.467Z,14.70
2018-05-15T09:58:40.969Z,14.57
2018-05-15T10:01:08.691Z,14.47
2018-05-15T10:03:36.219Z,14.36
2018-05-15T10:06:03.732Z,14.33
2018-05-15T10:08:31.325Z,14.40
2018-05-15T10:10:58.813Z,14.38
2018-05-15T10:13:26.301Z,14.50
2018-05-15T10:15:53.804Z,14.58
2018-05-15T10:18:21.289Z,14.61
2018-05-15T10:20:48.838Z,14.44
2018-05-15T10:23:16.352Z,14.52
2018-05-15T10:25:43.832Z,14.56
2018-05-15T10:28:11.327Z,14.62
2018-05-15T10:30:38.794Z,14.87
2018-05-15T10:33:06.281Z,14.97
2018-05-15T10:35:33.769Z,15.06
2018-05-15T10:38:01.264Z,15.15
2018-05-15T10:40:28.746Z,15.13
2018-05-15T10:42:56.243Z,15.08
2018-05-15T10:45:23.702Z,15.00
2018-05-15T10:47:51.199Z,14.67
2018-05-15T10:50:18.764Z,14.17
2018-05-15T10:52:46.248Z,14.11
2018-05-15T10:55:13.743Z,14.29
2018-05-15T10:57:41.198Z,14.52
2018-05-15T11:00:08.684Z,14.85
2018-05-15T11:02:36.179Z,14.75
2018-05-15T11:05:03.671Z,14.70
2018-05-15T11:07:31.175Z,14.82
2018-05-15T11:09:58.656Z,14.83
2018-05-15T11:12:26.115Z,15.09
2018-05-15T11:14:53.624Z,15.41
2018-05-15T11:17:21.094Z,15.61
2018-05-15T11:20:00.434Z,15.61
2018-05-15T11:25:30.239Z,15.89
2018-05-15T11:27:57.694Z,15.96
2018-05-15T11:30:25.269Z,15.79
2018-05-15T11:32:52.683Z,15.51
2018-05-15T11:35:20.755Z,15.38
2018-05-15T11:37:48.235Z,15.03
2018-05-15T11:40:15.718Z,15.07
2018-05-15T11:42:43.269Z,15.04
2018-05-15T11:45:10.746Z,15.31
2018-05-15T11:47:38.412Z,15.40
2018-05-15T11:50:06.637Z,15.29
2018-05-15T11:52:33.544Z,15.39
2018-05-15T11:55:00.661Z,15.29
2018-05-15T11:57:28.120Z,15.46
2018-05-15T11:59:55.843Z,15.26
2018-05-15T12:02:23.404Z,15.30
2018-05-15T12:04:50.828Z,15.24
2018-05-15T12:07:18.327Z,15.36
2018-05-15T12:09:45.849Z,15.40
2018-05-15T12:12:13.350Z,15.48
2018-05-15T12:14:40.829Z,15.63
2018-05-15T12:17:08.332Z,15.72
2018-05-15T12:19:35.850Z,15.52
2018-05-15T12:22:03.356Z,15.01
2018-05-15T12:24:30.891Z,14.62
2018-05-15T12:26:58.377Z,14.53
2018-05-15T12:29:25.934Z,14.25
2018-05-15T12:31:53.366Z,14.24
2018-05-15T12:34:20.845Z,14.20
2018-05-15T12:36:48.296Z,14.26
2018-05-15T12:39:15.822Z,14.37
2018-05-15T12:41:43.345Z,14.52
2018-05-15T12:44:10.792Z,14.82
2018-05-15T12:46:38.375Z,14.88
2018-05-15T12:49:05.766Z,14.97
2018-05-15T12:51:33.244Z,15.05
2018-05-15T12:54:00.772Z,14.84
2018-05-15T12:56:28.231Z,14.85
2018-05-15T12:58:55.728Z,14.65
2018-05-15T13:01:23.236Z,14.68
2018-05-15T13:03:50.707Z,14.59
2018-05-15T13:06:18.190Z,14.58
2018-05-15T13:08:45.661Z,14.49
2018-05-15T13:11:13.161Z,14.43
2018-05-15T13:13:40.666Z,14.39
2018-05-15T13:16:08.162Z,14.45
2018-05-15T13:18:35.735Z,14.18
2018-05-15T13:21:03.181Z,14.22
2018-05-15T13:23:30.712Z,14.14
2018-05-15T13:25:58.215Z,13.95
2018-05-15T13:28:25.703Z,14.12
2018-05-15T13:30:53.173Z,14.24
2018-05-15T13:33:20.638Z,14.08
2018-05-15T13:35:48.103Z,14.05
2018-05-15T13:38:15.597Z,14.00
2018-05-15T13:40:43.182Z,14.08
2018-05-15T13:43:10.625Z,14.01
2018-05-15T13:45:38.115Z,14.10
2018-05-15T13:48:05.656Z,14.30
2018-05-15T13:50:33.238Z,14.24
2018-05-15T13:53:00.734Z,14.13
2018-05-15T13:55:28.255Z,14.24
2018-05-15T13:57:55.839Z,14.27
2018-05-15T14:00:23.343Z,14.42
2018-05-15T14:02:50.871Z,14.43
2018-05-15T14:05:18.353Z,14.55
2018-05-15T14:07:45.844Z,14.72
2018-05-15T14:10:13.306Z,14.60
2018-05-15T14:12:40.760Z,14.64
2018-05-15T14:15:08.214Z,14.49
2018-05-15T14:17:35.683Z,14.60
2018-05-15T14:20:03.205Z,14.87
2018-05-15T14:22:30.826Z,15.10
2018-05-15T14:24:58.278Z,15.28
2018-05-15T14:27:25.730Z,15.26
2018-05-15T14:29:53.217Z,15.44
2018-05-15T14:32:20.723Z,15.23
2018-05-15T14:34:48.216Z,15.15
2018-05-15T14:37:15.712Z,15.19
2018-05-15T14:39:43.181Z,15.17
2018-05-15T14:42:22.567Z,15.26
2018-05-15T14:44:50.055Z,15.24
2018-05-15T14:47:17.531Z,15.29
2018-05-15T14:49:45.023Z,15.22
2018-05-15T14:52:12.551Z,15.27
2018-05-15T14:54:40.006Z,15.21
2018-05-15T14:57:07.487Z,15.20
2018-05-15T14:59:34.989Z,15.28
2018-05-15T15:02:02.463Z,15.29
2018-05-15T15:04:29.933Z,15.31
2018-05-15T15:06:57.460Z,15.26
2018-05-15T15:09:24.969Z,15.37
2018-05-15T15:11:52.479Z,15.49
2018-05-15T15:14:19.972Z,15.74
2018-05-15T15:16:48.363Z,15.54
2018-05-15T15:19:16.034Z,15.56
2018-05-15T15:21:43.531Z,15.72
2018-05-15T15:24:11.116Z,15.82
2018-05-15T15:26:38.635Z,15.72
2018-05-15T15:29:06.181Z,15.78
2018-05-15T15:31:33.592Z,15.64
2018-05-15T15:34:01.063Z,15.83
2018-05-15T15:36:28.633Z,15.67
2018-05-15T15:38:56.139Z,15.50
2018-05-15T15:41:23.628Z,15.51
2018-05-15T15:43:51.201Z,15.49
2018-05-15T15:46:18.650Z,15.16
2018-05-15T15:48:46.139Z,15.08
2018-05-15T15:51:13.648Z,14.96
2018-05-15T15:53:41.121Z,14.77
2018-05-15T15:56:08.613Z,14.75
2018-05-15T15:58:36.087Z,14.60
2018-05-15T16:01:03.565Z,14.73
2018-05-15T16:03:31.023Z,14.73
2018-05-15T16:05:58.488Z,14.79
2018-05-15T16:08:27.381Z,14.59
2018-05-15T16:10:54.877Z,14.55
2018-05-15T16:13:22.357Z,14.53
2018-05-15T16:15:49.842Z,14.53
2018-05-15T16:18:17.298Z,14.45
2018-05-15T16:20:44.755Z,14.53
2018-05-15T16:23:12.262Z,14.59
2018-05-15T16:25:39.754Z,14.49
2018-05-15T16:28:07.241Z,14.42
2018-05-15T16:30:34.799Z,14.20
2018-05-15T16:33:02.279Z,14.24
2018-05-15T16:35:29.775Z,14.30
2018-05-15T16:37:57.323Z,14.33
2018-05-15T16:40:24.786Z,14.16
2018-05-15T16:42:52.278Z,14.23
2018-05-15T16:45:19.763Z,14.28
2018-05-15T16:47:47.261Z,14.13
2018-05-15T16:50:14.759Z,14.22
2018-05-15T16:52:42.347Z,14.12
2018-05-15T16:55:09.826Z,14.22
2018-05-15T16:57:37.313Z,14.13
2018-05-15T17:00:04.760Z,14.11
2018-05-15T17:02:32.335Z,14.14
2018-05-15T17:04:59.816Z,14.22
2018-05-15T17:07:27.294Z,14.09
2018-05-15T17:09:54.786Z,13.99
2018-05-15T17:12:22.273Z,14.14
2018-05-15T17:14:49.763Z,14.00
2018-05-15T17:17:17.296Z,13.86
2018-05-15T17:19:44.776Z,14.01
2018-05-15T17:22:12.306Z,14.04
2018-05-15T17:24:39.802Z,13.92
2018-05-15T17:27:07.331Z,13.84
2018-05-15T17:29:34.791Z,13.67
2018-05-15T17:32:02.329Z,13.64
2018-05-15T17:34:29.879Z,13.62
2018-05-15T17:36:57.411Z,13.54
2018-05-15T17:39:24.963Z,13.64
2018-05-15T17:41:52.548Z,13.63
2018-05-15T17:44:20.392Z,13.54
2018-05-15T17:46:47.912Z,13.56
2018-05-15T17:49:15.399Z,13.43
2018-05-15T17:51:42.879Z,13.47
2018-05-15T17:54:10.384Z,13.38
2018-05-15T17:56:37.900Z,13.41
2018-05-15T17:59:05.387Z,13.41
2018-05-15T18:01:32.892Z,13.32
2018-05-15T18:04:00.373Z,13.14
2018-05-15T18:06:27.932Z,13.01
2018-05-15T18:08:55.406Z,13.15
2018-05-15T18:11:22.884Z,13.00
2018-05-15T18:13:50.403Z,13.07
2018-05-15T18:16:17.859Z,12.89
2018-05-15T18:18:45.358Z,12.90
2018-05-15T18:21:12.883Z,12.72
2018-05-15T18:23:40.347Z,12.67
2018-05-15T18:26:07.880Z,12.55
2018-05-15T18:28:35.391Z,12.59
2018-05-15T18:31:02.918Z,12.64
2018-05-15T18:33:30.417Z,12.65
2018-05-15T18:35:57.930Z,12.53
2018-05-15T18:38:25.404Z,12.42
2018-05-15T18:40:52.921Z,12.49
2018-05-15T18:43:20.412Z,12.37
2018-05-15T18:45:47.919Z,12.28
2018-05-15T18:48:15.435Z,12.24
2018-05-15T18:50:42.981Z,12.29
2018-05-15T18:53:10.511Z,12.30
2018-05-15T18:55:37.991Z,12.23
2018-05-15T18:58:05.523Z,12.22
2018-05-15T19:00:33.004Z,12.12
2018-05-15T19:03:00.478Z,12.17
2018-05-15T19:05:27.947Z,12.09
2018-05-15T19:07:55.498Z,12.14
2018-05-15T19:10:22.974Z,12.11
2018-05-15T19:12:50.453Z,12.09
2018-05-15T19:15:17.930Z,12.12
2018-05-15T19:17:45.436Z,12.20
2018-05-15T19:20:13.814Z,12.07
2018-05-15T19:22:43.659Z,12.07
2018-05-15T19:25:12.857Z,12.07
2018-05-15T19:27:43.905Z,11.99
2018-05-15T19:30:12.312Z,12.10
2018-05-15T19:32:40.125Z,12.14
2018-05-15T19:35:09.497Z,12.18
2018-05-15T19:37:39.041Z,12.13
2018-05-15T19:40:19.545Z,12.04
2018-05-15T19:42:47.544Z,12.04
2018-05-15T19:45:15.214Z,12.03
2018-05-15T19:47:44.493Z,12.00
2018-05-15T19:50:15.563Z,12.02
2018-05-15T19:52:43.144Z,12.07
2018-05-15T19:55:12.629Z,11.96
2018-05-15T19:57:40.888Z,11.87
2018-05-15T20:00:08.376Z,11.85
2018-05-15T20:02:35.872Z,11.86
2018-05-15T20:05:03.385Z,11.78
2018-05-15T20:07:30.912Z,11.85
2018-05-15T20:09:58.466Z,11.92
2018-05-15T20:12:25.943Z,12.02
2018-05-15T20:14:53.443Z,11.99
2018-05-15T20:17:20.937Z,11.93
2018-05-15T20:19:48.408Z,11.98
2018-05-15T20:22:15.929Z,11.94
2018-05-15T20:24:43.423Z,11.87
2018-05-15T20:27:10.914Z,11.82
2018-05-15T20:29:38.371Z,11.87
2018-05-15T20:32:05.831Z,11.93
2018-05-15T20:34:33.331Z,12.00
2018-05-15T20:37:00.872Z,12.02
2018-05-15T20:39:28.340Z,12.07
2018-05-15T20:41:55.891Z,12.00
2018-05-15T20:44:23.454Z,12.05
2018-05-15T20:46:50.948Z,12.12
2018-05-15T20:49:18.435Z,12.10
2018-05-15T20:51:45.913Z,12.08
2018-05-15T20:54:13.393Z,12.05
2018-05-15T20:56:40.864Z,12.06
2018-05-15T20:59:09.553Z,12.16
2018-05-15T21:01:44.651Z,12.16
2018-05-15T21:04:12.134Z,12.17
2018-05-15T21:06:39.630Z,12.04
2018-05-15T21:09:07.112Z,12.17
2018-05-15T21:11:34.604Z,12.16
2018-05-15T21:14:02.118Z,12.07
2018-05-15T21:16:29.612Z,12.03
2018-05-15T21:18:57.588Z,12.26
2018-05-15T21:21:25.161Z,12.22
2018-05-15T21:23:53.328Z,12.17
2018-05-15T21:26:21.705Z,12.23
2018-05-15T21:28:49.256Z,12.20
2018-05-15T21:31:16.718Z,12.30
2018-05-15T21:33:44.195Z,12.27
2018-05-15T21:36:11.662Z,12.26
2018-05-15T21:38:39.206Z,12.31
2018-05-15T21:41:06.755Z,12.36
2018-05-15T21:43:34.271Z,12.29
2018-05-15T21:46:01.817Z,12.19
2018-05-15T21:48:29.358Z,12.20
2018-05-15T22:00:36.835Z,12.13
2018-05-15T22:03:04.333Z,12.15
2018-05-15T22:05:33.714Z,12.14
2018-05-15T22:08:01.279Z,12.25
2018-05-15T22:10:28.780Z,12.20
2018-05-15T22:13:08.243Z,12.17
2018-05-15T22:15:47.331Z,12.18
2018-05-15T22:18:26.759Z,12.23
2018-05-15T22:21:05.892Z,12.17
2018-05-15T22:23:32.839Z,12.14
2018-05-15T22:26:01.058Z,12.18
2018-05-15T22:28:28.630Z,12.12
2018-05-15T22:30:56.487Z,12.11
2018-05-15T22:33:23.946Z,12.08
2018-05-15T22:35:55.228Z,12.11
2018-05-15T22:38:22.723Z,12.18
2018-05-15T22:40:50.201Z,12.23
2018-05-15T22:43:17.666Z,12.25
2018-05-15T22:45:45.161Z,12.19
2018-05-15T22:48:12.717Z,12.22
2018-05-15T22:50:40.203Z,12.19
2018-05-15T22:53:07.686Z,12.31
2018-05-15T22:55:35.154Z,12.20
2018-05-15T22:58:02.618Z,12.13
2018-05-15T23:00:30.123Z,12.13
2018-05-15T23:02:57.590Z,12.11
2018-05-15T23:05:25.121Z,12.07
2018-05-15T23:07:52.623Z,12.02
2018-05-15T23:10:20.104Z,12.02
2018-05-15T23:12:47.597Z,12.07
2018-05-15T23:15:15.059Z,12.02
2018-05-15T23:17:43.035Z,12.10
2018-05-15T23:20:11.452Z,12.24
2018-05-15T23:22:42.775Z,12.18
2018-05-15T23:25:10.274Z,12.06
2018-05-15T23:27:37.729Z,12.03
2018-05-15T23:30:05.196Z,12.06
2018-05-15T23:32:32.676Z,12.15
2018-05-15T23:35:00.187Z,12.23
2018-05-15T23:37:28.093Z,12.22
2018-05-15T23:39:55.618Z,12.22
2018-05-15T23:42:23.149Z,12.18
2018-05-15T23:44:50.636Z,12.21
2018-05-15T23:47:18.106Z,12.20
2018-05-15T23:49:45.622Z,12.27
2018-05-15T23:52:13.112Z,12.31
2018-05-15T23:54:40.634Z,12.38
2018-05-15T23:57:08.133Z,12.36
2018-05-15T23:59:35.599Z,12.30
